Time;durP1;ratioP1;P1;durP2;ratioP2;P2;SDS_P1;SDS_P2;PMS_P1;PMS_P2;Temp;Humidity;BMP_temperature;BMP_pressure;BME280_temperature;BME280_humidity;BME280_pressure;Samples;Min_cycle;Max_cycle;Signal;HPM_P1;HPM_P2
2021/09/30 00:00:04;;;;;;;;;;;;;;;;;;;;;
2021/09/30 00:03:29;;;;;;;;;;;;;;;;;;;;;
2021/09/30 00:07:07;;;;;;;;;;;;;;;;;;;;;
2021/09/30 00:10:46;;;;;;;8.70;3.90;;;;;;;21.43;46.24;101980.89;110473;1241;71643;-89
2021/09/30 01:46:41;;;;;;;6.20;4.00;;;;;;;21.42;47.04;101966.95;111757;1228;71273;-86
2021/09/30 03:00:34;;;;;;;;;;;;;;;;;;;;;
2021/09/30 03:03:48;;;;;;;9.70;4.70;;;;;;;21.40;47.35;101984.06;110387;1243;59954;-79
2021/09/30 03:07:25;;;;;;;;;;;;;;;;;;;;;
2021/09/30 03:11:28;;;;;;;9.10;4.60;;;;;;;21.39;47.20;101989.14;110014;1245;73091;-87
2021/09/30 03:26:28;;;;;;;;;;;;;;;;;;;;;
2021/09/30 03:30:04;;;;;;;8.90;4.60;;;;;;;21.38;47.34;101993.84;110210;1244;59606;-87
2021/09/30 03:33:02;;;;;;;;;;;;;;;;;;;;;
2021/09/30 03:36:35;;;;;;;7.60;3.70;;;;;;;21.38;47.23;101993.65;109851;1248;72680;-79
2021/09/30 03:40:30;;;;;;;6.80;3.80;;;;;;;21.38;47.17;101996.56;109993;1247;73852;-86
2021/09/30 03:43:42;;;;;;;;;;;;;;;;;;;;;
2021/09/30 03:47:21;;;;;;;;;;;;;;;;;;;;;
2021/09/30 03:54:53;;;;;;;;;;;;;;;;;;;;;
2021/09/30 04:02:14;;;;;;;11.20;4.80;;;;;;;21.33;46.60;102004.53;110027;1245;59016;-87
2021/09/30 04:05:51;;;;;;;;;;;;;;;;;;;;;
2021/09/30 04:09:53;;;;;;;;;;;;;;;;;;;;;
2021/09/30 04:13:23;;;;;;;;;;;;;;;;;;;;;
2021/09/30 04:16:59;;;;;;;;;;;;;;;;;;;;;
2021/09/30 04:21:17;;;;;;;16.50;6.40;;;;;;;21.37;46.17;102002.16;113138;1209;602484;-82
2021/09/30 04:25:03;;;;;;;20.50;6.70;;;;;;;21.33;45.94;102005.95;113311;1209;73323;-88
2021/09/30 04:28:27;;;;;;;15.60;7.10;;;;;;;21.30;45.73;102009.88;113064;1216;59100;-82
2021/09/30 04:32:02;;;;;;;16.90;7.10;;;;;;;21.26;45.40;102014.70;112894;1219;60180;-86
2021/09/30 04:45:56;;;;;;;;;;;;;;;;;;;;;
2021/09/30 04:53:03;;;;;;;;;;;;;;;;;;;;;
2021/09/30 04:56:12;;;;;;;;;;;;;;;;;;;;;
2021/09/30 05:02:47;;;;;;;;;;;;;;;;;;;;;
2021/09/30 05:10:32;;;;;;;;;;;;;;;;;;;;;
2021/09/30 05:14:32;;;;;;;16.80;7.30;;;;;;;20.68;43.53;102030.00;112883;1217;59043;-79
2021/09/30 05:17:46;;;;;;;;;;;;;;;;;;;;;
2021/09/30 05:20:52;;;;;;;;;;;;;;;20.52;43.17;102039.73;111801;1227;71626;-80
2021/09/30 05:24:51;;;;;;;15.80;7.40;;;;;;;20.40;43.09;102043.35;111868;1227;59118;-80
2021/09/30 05:35:46;;;;;;;17.50;6.70;;;;;;;20.50;43.28;102054.15;110200;1241;70844;-79
2021/09/30 05:39:02;;;;;;;;;;;;;;;;;;;;;
2021/09/30 05:42:41;;;;;;;;;;;;;;;;;;;;;
2021/09/30 05:46:00;;;;;;;20.80;7.00;;;;;;;20.64;43.17;102057.42;109731;1244;72506;-81
2021/09/30 05:49:32;;;;;;;;;;;;;;;;;;;;;
2021/09/30 05:53:07;;;;;;;;;;;;;;;;;;;;;
2021/09/30 05:56:09;;;;;;;;;;;;;;;;;;;;;
2021/09/30 05:59:53;;;;;;;;;;;;;;;;;;;;;
2021/09/30 06:11:44;;;;;;;;;;;;;;;;;;;;;
2021/09/30 06:18:56;;;;;;;;;;;;;;;;;;;;;
2021/09/30 06:22:42;;;;;;;25.20;8.00;;;;;;;20.35;42.71;102069.17;110027;1241;60169;-80
2021/09/30 06:26:18;;;;;;;;;;;;;;;;;;;;;
2021/09/30 06:30:30;;;;;;;;;;;;;;;;;;;;;
2021/09/30 06:37:32;;;;;;;17.20;8.90;;;;;;;20.00;42.56;102071.91;112955;1213;59010;-80
2021/09/30 06:40:48;;;;;;;;;;;;;;;;;;;;;
2021/09/30 06:44:33;;;;;;;;;;;;;;;;;;;;;
2021/09/30 06:48:45;;;;;;;21.30;7.10;;;;;;;19.97;42.35;102080.25;111129;1230;72586;-80
2021/09/30 06:51:56;;;;;;;;;;;;;;;;;;;;;
2021/09/30 06:56:02;;;;;;;19.40;7.30;;;;;;;20.15;42.38;102076.23;109922;1241;60583;-82
2021/09/30 07:11:17;;;;;;;22.80;7.40;;;;;;;20.12;42.24;102083.30;112187;1224;60347;-81
2021/09/30 07:18:04;;;;;;;15.10;6.20;;;;;;;20.25;42.37;102075.17;110385;1237;72314;-79
2021/09/30 07:28:49;;;;;;;18.90;6.90;;;;;;;20.48;42.22;102072.86;113149;1208;600154;-79
2021/09/30 07:32:17;;;;;;;18.60;6.80;;;;;;;20.37;42.34;102075.02;113066;1212;69682;-81
2021/09/30 07:35:29;;;;;;;;;;;;;;;;;;;;;
2021/09/30 07:39:30;;;;;;;;;;;;;;;;;;;;;
2021/09/30 07:46:35;;;;;;;15.50;6.90;;;;;;;20.09;42.19;102061.64;111124;1231;70889;-81
2021/09/30 07:50:04;;;;;;;14.00;6.10;;;;;;;20.13;42.26;102057.89;110624;1236;59406;-82
2021/09/30 07:53:33;;;;;;;;;;;;;;;;;;;;;
2021/09/30 07:56:27;;;;;;;17.30;6.10;;;;;;;20.04;42.14;102064.58;110760;1238;74441;-82
2021/09/30 07:59:46;;;;;;;;;;;;;;;;;;;;;
2021/09/30 08:03:04;;;;;;;21.50;5.70;;;;;;;19.86;41.98;102060.04;109797;1244;61275;-80
2021/09/30 08:06:31;;;;;;;20.20;6.10;;;;;;;19.91;42.19;102064.46;109284;1244;59519;-80
2021/09/30 08:09:07;;;;;;;19.00;6.30;;;;;;;19.94;42.06;102064.66;109287;1245;73856;-79
2021/09/30 08:12:16;;;;;;;19.90;5.90;;;;;;;20.05;42.10;102062.20;109899;1242;71990;-81
2021/09/30 08:15:30;;;;;;;13.80;5.80;;;;;;;20.12;42.13;102059.01;109936;1242;60084;-80
2021/09/30 08:22:58;;;;;;;;;;;;;;;;;;;;;
2021/09/30 08:26:23;;;;;;;;;;;;;;;;;;;;;
2021/09/30 08:29:33;;;;;;;16.40;5.60;;;;;;;20.47;42.10;102050.36;110162;1239;59953;-81
2021/09/30 08:33:04;;;;;;;21.30;5.90;;;;;;;20.48;42.08;102051.38;109881;1244;60600;-82
2021/09/30 08:36:15;;;;;;;;;;;;;;;;;;;;;
2021/09/30 08:43:19;;;;;;;;;;;;;;;;;;;;;
2021/09/30 08:46:31;;;;;;;14.30;5.30;;;;;;;20.66;42.32;102046.91;109835;1245;58946;-85
2021/09/30 08:50:15;;;;;;;19.60;5.50;;;;;;;20.71;42.19;102039.73;109734;1245;71600;-81
2021/09/30 08:53:27;;;;;;;12.40;5.00;;;;;;;20.72;42.09;102038.58;109717;1245;72947;-81
2021/09/30 08:56:33;;;;;;;19.30;5.30;;;;;;;20.70;41.98;102037.80;109208;1247;61124;-80
2021/09/30 08:59:15;;;;;;;17.70;5.20;;;;;;;20.62;41.63;102039.58;110040;1246;60545;-81
2021/09/30 09:02:08;;;;;;;13.20;4.60;;;;;;;20.52;41.50;102038.11;110397;1242;71536;-81
2021/09/30 09:04:59;;;;;;;13.30;5.00;;;;;;;20.46;41.39;102039.84;110810;1241;72910;-81
2021/09/30 09:07:40;;;;;;;16.70;4.80;;;;;;;20.45;41.33;102042.05;111423;1235;60965;-81
2021/09/30 09:10:11;;;;;;;17.70;5.20;;;;;;;20.40;41.35;102040.31;111729;1232;61089;-81
2021/09/30 09:12:43;;;;;;;16.70;5.10;;;;;;;20.41;41.33;102037.25;111781;1232;72406;-82
2021/09/30 09:15:57;;;;;;;16.60;5.40;;;;;;;20.41;41.20;102038.10;111564;1228;72794;-81
2021/09/30 09:18:49;;;;;;;15.70;5.40;;;;;;;20.40;41.12;102039.27;111567;1227;59977;-80
2021/09/30 09:21:38;;;;;;;12.20;5.20;;;;;;;20.41;41.02;102037.76;111867;1225;60127;-80
2021/09/30 09:24:56;;;;;;;;;;;;;;;;;;;;;
2021/09/30 09:27:16;;;;;;;12.50;5.10;;;;;;;20.44;40.95;102029.60;113260;1217;73110;-80
2021/09/30 09:29:41;;;;;;;13.20;4.80;;;;;;;20.49;40.87;102026.64;113432;1218;58228;-80
2021/09/30 09:32:38;;;;;;;12.70;5.40;;;;;;;20.54;40.70;102026.26;112718;1213;61363;-81
2021/09/30 09:35:55;;;;;;;;;;;;;;;;;;;;;
2021/09/30 09:39:09;;;;;;;11.80;5.20;;;;;;;20.46;40.43;102027.54;113122;1212;73110;-80
2021/09/30 09:41:46;;;;;;;13.80;5.50;;;;;;;20.49;40.44;102023.43;112800;1215;61194;-81
2021/09/30 09:45:02;;;;;;;;;;;;;;;;;;;;;
2021/09/30 09:47:57;;;;;;;16.30;6.20;;;;;;;20.42;40.18;102027.16;112800;1216;72306;-81
2021/09/30 09:50:52;;;;;;;13.80;5.80;;;;;;;20.46;40.19;102027.53;112333;1219;72924;-83
2021/09/30 09:53:58;;;;;;;;;;;;;;;;;;;;;
2021/09/30 09:57:25;;;;;;;12.70;5.60;;;;;;;20.48;40.18;102018.66;112121;1221;60277;-82
2021/09/30 10:01:18;;;;;;;14.50;6.70;;;;;;;20.49;39.76;102025.58;112489;1221;73887;-81
2021/09/30 10:04:24;;;;;;;13.00;5.90;;;;;;;20.43;39.54;102027.13;112676;1222;73327;-81
2021/09/30 10:07:23;;;;;;;18.80;6.40;;;;;;;20.43;39.51;102028.03;112117;1222;59375;-82
2021/09/30 10:11:15;;;;;;;12.70;5.90;;;;;;;20.49;39.66;102018.44;112068;1225;59413;-80
2021/09/30 10:14:37;;;;;;;;;;;;;;;;;;;;;
2021/09/30 10:17:53;;;;;;;11.20;6.00;;;;;;;20.63;39.65;102018.09;111690;1227;74254;-80
2021/09/30 10:24:42;;;;;;;;;;;;;;;;;;;;;
2021/09/30 10:27:52;;;;;;;12.60;5.50;;;;;;;20.74;39.49;102008.99;111901;1225;72454;-81
2021/09/30 10:31:12;;;;;;;;;;;;;;;;;;;;;
2021/09/30 10:35:24;;;;;;;16.80;6.30;;;;;;;20.71;38.96;102004.48;111131;1232;59375;-82
2021/09/30 10:38:55;;;;;;;;;;;;;;;;;;;;;
2021/09/30 10:42:22;;;;;;;13.10;7.20;;;;;;;20.67;38.92;102004.15;111162;1233;72641;-82
2021/09/30 10:45:12;;;;;;;13.40;6.20;;;;;;;20.64;38.68;101997.13;111404;1237;72060;-80
2021/09/30 10:53:01;;;;;;;15.60;6.10;;;;;;;20.46;38.27;101994.11;109673;1244;59825;-80
2021/09/30 10:56:01;;;;;;;14.80;6.20;;;;;;;20.35;37.97;101995.31;109259;1241;71577;-79
2021/09/30 10:58:42;;;;;;;11.80;5.80;;;;;;;20.31;37.89;101994.80;110547;1241;73014;-79
2021/09/30 11:01:12;;;;;;;15.80;6.60;;;;;;;20.33;37.86;101984.70;110624;1241;57954;-79
2021/09/30 11:03:59;;;;;;;13.10;6.00;;;;;;;20.33;37.67;101984.89;110652;1243;60924;-79
2021/09/30 11:07:38;;;;;;;;;;;;;;;;;;;;;
2021/09/30 11:11:23;;;;;;;15.90;6.80;;;;;;;20.30;37.66;101981.28;109955;1238;72360;-80
2021/09/30 11:14:37;;;;;;;13.30;6.30;;;;;;;20.32;37.49;101979.77;110807;1234;60174;-80
2021/09/30 11:18:37;;;;;;;14.80;6.10;;;;;;;20.28;37.35;101980.69;110589;1235;60991;-80
2021/09/30 11:22:10;;;;;;;;;;;;;;;;;;;;;
2021/09/30 11:25:22;;;;;;;15.70;5.90;;;;;;;20.25;37.31;101982.41;110081;1241;72917;-80
2021/09/30 11:28:55;;;;;;;;;;;;;;;;;;;;;
2021/09/30 11:32:14;;;;;;;13.90;5.40;;;;;;;20.35;37.41;101974.23;111043;1238;60927;-80
2021/09/30 11:35:25;;;;;;;;;;;;;;;;;;;;;
2021/09/30 11:38:43;;;;;;;;;;;;;;;;;;;;;
2021/09/30 11:41:56;;;;;;;11.80;7.30;;;;;;;20.38;37.15;101968.89;110240;1238;60113;-82
2021/09/30 11:45:28;;;;;;;23.80;8.90;;;;;;;20.42;37.35;101970.65;110453;1238;61349;-79
2021/09/30 11:49:39;;;;;;;15.30;9.10;;;;;;;20.42;37.27;101970.67;109727;1244;73681;-81
2021/09/30 11:52:47;;;;;;;19.90;9.40;;;;;;;20.39;37.43;101964.57;109999;1241;74011;-80
2021/09/30 11:56:10;;;;;;;19.10;8.90;;;;;;;20.42;37.44;101964.42;110279;1237;59250;-80
2021/09/30 11:59:30;;;;;;;;;;;;;;;;;;;;;
2021/09/30 12:06:10;;;;;;;14.10;8.40;;;;;;;20.48;37.78;101959.33;110872;1235;74448;-80
2021/09/30 12:09:11;;;;;;;16.00;8.20;;;;;;;20.53;37.78;101955.46;111279;1230;60077;-80
2021/09/30 12:12:47;;;;;;;;;;;;;;;;;;;;;
2021/09/30 12:17:00;;;;;;;16.00;8.20;;;;;;;20.52;37.79;101950.31;110603;1235;71394;-81
2021/09/30 12:20:11;;;;;;;;;;;;;;;;;;;;;
2021/09/30 12:23:20;;;;;;;;;;;;;;;;;;;;;
2021/09/30 12:30:54;;;;;;;;;;;;;;;;;;;;;
2021/09/30 12:41:51;;;;;;;12.40;6.10;;;;;;;20.85;38.16;101947.61;112827;1215;70775;-77
2021/09/30 12:46:02;;;;;;;8.70;6.60;;;;;;;20.88;38.19;101950.11;112690;1219;58947;-80
2021/09/30 12:57:09;;;;;;;11.60;6.50;;;;;;;20.93;38.12;101944.48;110436;1239;70995;-82
2021/09/30 13:22:28;;;;;;;11.20;5.50;;;;;;;21.02;38.33;101938.27;111415;1231;60304;-82
2021/09/30 13:29:41;;;;;;;;;;;;;;;;;;;;;
2021/09/30 13:32:58;;;;;;;;;;;;;;;;;;;;;
2021/09/30 13:36:22;;;;;;;;;;;;;;;;;;;;;
2021/09/30 13:39:58;;;;;;;;;;;;;;;;;;;;;
2021/09/30 13:43:13;;;;;;;;;;;;;;;;;;;;;
2021/09/30 13:46:42;;;;;;;;;;;;;;;;;;;;;
2021/09/30 13:50:19;;;;;;;;;;;;;;;;;;;;;
2021/09/30 13:58:03;;;;;;;9.90;5.10;;;;;;;21.08;38.44;101922.75;110482;1239;74387;-86
2021/09/30 14:01:35;;;;;;;;;;;;;;;;;;;;;
2021/09/30 14:05:22;;;;;;;;;;;;;;;;;;;;;
2021/09/30 14:12:40;;;;;;;;;;;;;;;;;;;;;
2021/09/30 14:15:46;;;;;;;;;;;;;;;;;;;;;
2021/09/30 14:26:40;;;;;;;;;;;;;;;;;;;;;
2021/09/30 14:33:56;;;;;;;;;;;;;;;;;;;;;
2021/09/30 14:38:08;;;;;;;9.60;5.10;;;;;;;21.13;38.55;101906.38;111040;1233;73339;-80
2021/09/30 14:41:54;;;;;;;10.40;5.10;;;;;;;21.14;38.61;101902.58;110370;1238;70993;-82
2021/09/30 14:44:54;;;;;;;;;;;;;;;;;;;;;
2021/09/30 14:48:19;;;;;;;;;;;;;;;;;;;;;
2021/09/30 14:52:00;;;;;;;;;;;;;;;;;;;;;
2021/09/30 14:56:42;;;;;;;9.70;5.80;;;;;;;21.20;38.76;101894.57;113239;1208;601720;-84
2021/09/30 15:00:14;;;;;;;;;;;;;;;;;;;;;
2021/09/30 15:03:39;;;;;;;;;;;;;;;;;;;;;
2021/09/30 15:07:19;;;;;;;9.40;5.70;;;;;;;21.17;38.93;101899.19;112088;1226;59072;-87
2021/09/30 15:14:32;;;;;;;9.30;5.90;;;;;;;21.16;39.02;101898.15;110037;1245;70771;-84
2021/09/30 15:56:21;;;;;;;7.20;4.70;;;;;;;21.18;39.39;101921.14;110550;1240;71729;-78
2021/09/30 16:00:08;;;;;;;9.60;5.10;;;;;;;21.19;39.34;101924.52;110245;1243;72006;-82
2021/09/30 16:03:25;;;;;;;;;;;;;;;;;;;;;
2021/09/30 16:07:31;;;;;;;;;;;;;;;;;;;;;
2021/09/30 16:11:17;;;;;;;;;;;;;;;;;;;;;
2021/09/30 16:14:53;;;;;;;;;;;;;;;;;;;;;
2021/09/30 16:18:39;;;;;;;;;;;;;;;;;;;;;
2021/09/30 16:25:56;;;;;;;8.40;5.50;;;;;;;21.20;39.64;101943.80;110573;1237;71268;-82
2021/09/30 16:32:54;;;;;;;;;;;;;;;;;;;;;
2021/09/30 16:43:34;;;;;;;8.70;5.40;;;;;;;21.19;39.79;101949.42;110052;1242;71869;-80
2021/09/30 16:46:22;;;;;;;;;;;;;;;;;;;;;
2021/09/30 17:01:06;;;;;;;7.30;4.90;;;;;;;21.21;40.03;101956.25;112354;1225;59049;-80
2021/09/30 17:04:45;;;;;;;;;;;;;;;;;;;;;
2021/09/30 17:08:48;;;;;;;;;;;;;;;;;;;;;
2021/09/30 17:12:35;;;;;;;;;;;;;;;;;;;;;
2021/09/30 17:15:40;;;;;;;;;;;;;;;;;;;;;
2021/09/30 17:19:16;;;;;;;;;;;;;;;;;;;;;
2021/09/30 17:22:36;;;;;;;9.30;4.80;;;;;;;21.21;40.18;101967.54;109794;1246;73145;-79
2021/09/30 17:26:03;;;;;;;7.30;4.80;;;;;;;21.22;40.21;101966.23;109692;1245;61181;-80
2021/09/30 17:29:29;;;;;;;6.30;4.70;;;;;;;21.22;40.28;101971.43;109760;1244;60462;-82
2021/09/30 17:32:39;;;;;;;8.60;5.00;;;;;;;21.21;40.29;101973.95;109931;1245;72525;-84
2021/09/30 17:35:56;;;;;;;;;;;;;;;;;;;;;
2021/09/30 17:39:57;;;;;;;8.00;4.90;;;;;;;21.22;40.34;101975.92;110803;1234;59728;-80
2021/09/30 17:43:19;;;;;;;8.60;4.70;;;;;;;21.21;40.36;101977.92;110969;1233;60559;-80
2021/09/30 17:46:34;;;;;;;;;;;;;;;;;;;;;
2021/09/30 17:53:48;;;;;;;7.50;4.70;;;;;;;21.21;40.48;101989.73;110747;1236;60655;-78
2021/09/30 17:57:14;;;;;;;6.90;5.00;;;;;;;21.21;40.56;102000.30;110340;1225;59977;-80
2021/09/30 18:00:32;;;;;;;;;;;;;;;;;;;;;
2021/09/30 18:04:11;;;;;;;;;;;;;;;;;;;;;
2021/09/30 18:15:18;;;;;;;6.00;4.60;;;;;;;21.26;40.70;102024.58;112813;1211;601160;-88
2021/09/30 18:22:17;;;;;;;;;;;;;;;;;;;;;
2021/09/30 18:26:14;;;;;;;;;;;;;;;;;;;;;
2021/09/30 18:29:40;;;;;;;;;;;;;;;;;;;;;
2021/09/30 18:33:49;;;;;;;;;;;;;;;;;;;;;
2021/09/30 18:37:14;;;;;;;;;;;;;;;;;;;;;
2021/09/30 18:40:46;;;;;;;6.70;4.60;;;;;;;21.19;40.90;102048.17;109858;1248;60426;-86
2021/09/30 18:44:24;;;;;;;;;;;;;;;;;;;;;
2021/09/30 18:48:13;;;;;;;6.70;5.00;;;;;;;21.19;40.99;102051.08;109829;1250;72207;-84
2021/09/30 18:51:44;;;;;;;;;;;;;;;;;;;;;
2021/09/30 18:58:44;;;;;;;;;;;;;;;;;;;;;
2021/09/30 19:10:09;;;;;;;7.60;4.50;;;;;;;21.20;41.08;102068.40;111476;1231;59109;-85
2021/09/30 19:17:06;;;;;;;;;;;;;;;;;;;;;
2021/09/30 19:20:24;;;;;;;6.30;4.70;;;;;;;21.19;41.27;102068.44;110176;1244;61302;-88
2021/09/30 19:27:48;;;;;;;8.30;4.90;;;;;;;21.23;41.11;102070.01;113138;1208;601062;-79
2021/09/30 19:31:35;;;;;;;7.80;4.60;;;;;;;21.20;41.24;102076.98;113230;1209;71968;-83
2021/09/30 19:46:32;;;;;;;8.50;4.90;;;;;;;21.19;41.27;102086.87;111675;1230;71017;-84
2021/09/30 20:01:09;;;;;;;;;;;;;;;;;;;;;
2021/09/30 20:08:40;;;;;;;;;;;;;;;;;;;;;
2021/09/30 20:15:43;;;;;;;;;;;;;;;;;;;;;
2021/09/30 20:31:00;;;;;;;;;;;;;;;;;;;;;
2021/09/30 20:34:47;;;;;;;;;;;;;;;;;;;;;
2021/09/30 20:38:06;;;;;;;;;;;;;;;;;;;;;
2021/09/30 20:41:43;;;;;;;;;;;;;;;;;;;;;
2021/09/30 20:47:39;;;;;;;7.50;4.60;;;;;;;21.23;41.67;102125.88;113098;1209;601217;-80
2021/09/30 20:50:05;;;;;;;6.80;4.90;;;;;;;21.20;41.74;102132.13;113323;1210;59033;-80
2021/09/30 20:52:32;;;;;;;6.30;4.50;;;;;;;21.20;41.72;102137.67;113354;1210;58954;-80
2021/09/30 20:54:57;;;;;;;6.60;4.50;;;;;;;21.19;41.53;102141.11;113373;1211;60215;-80
2021/09/30 20:57:24;;;;;;;6.00;4.40;;;;;;;21.19;41.70;102142.38;113473;1209;58974;-81
2021/09/30 20:59:50;;;;;;;6.80;4.80;;;;;;;21.19;41.84;102142.02;113585;1208;58957;-81
2021/09/30 21:02:16;;;;;;;6.70;4.50;;;;;;;21.18;41.62;102146.54;113637;1208;58947;-81
2021/09/30 21:04:42;;;;;;;8.00;4.80;;;;;;;21.18;41.74;102149.77;113613;1208;59086;-81
2021/09/30 21:07:08;;;;;;;5.60;4.10;;;;;;;21.17;41.80;102146.06;113524;1209;60264;-81
2021/09/30 21:09:34;;;;;;;6.80;4.60;;;;;;;21.17;41.78;102147.84;113560;1209;58979;-80
2021/09/30 21:11:59;;;;;;;6.10;4.50;;;;;;;21.16;41.72;102145.02;113632;1208;72663;-80
2021/09/30 21:14:25;;;;;;;7.60;4.60;;;;;;;21.16;41.85;102148.08;113537;1209;59342;-80
2021/09/30 21:16:52;;;;;;;6.90;4.90;;;;;;;21.16;41.83;102148.09;113518;1208;59443;-81
2021/09/30 21:19:17;;;;;;;8.90;4.60;;;;;;;21.15;41.79;102152.41;113531;1209;59343;-80
2021/09/30 21:21:43;;;;;;;6.60;4.60;;;;;;;21.15;41.85;102156.19;113489;1209;59314;-81
2021/09/30 21:24:09;;;;;;;7.90;4.60;;;;;;;21.14;41.93;102159.98;113603;1209;59339;-80
2021/09/30 21:26:35;;;;;;;6.20;4.30;;;;;;;21.14;41.95;102159.63;113532;1208;59304;-79
2021/09/30 21:29:01;;;;;;;7.60;4.60;;;;;;;21.14;41.93;102159.80;113638;1208;59401;-81
2021/09/30 21:31:33;;;;;;;7.00;4.80;;;;;;;21.14;41.87;102163.23;113514;1208;73426;-81
2021/09/30 21:34:00;;;;;;;6.50;4.70;;;;;;;21.13;42.02;102161.63;113450;1208;73079;-81
2021/09/30 21:36:25;;;;;;;7.90;5.10;;;;;;;21.13;42.06;102159.14;113377;1209;60038;-80
2021/09/30 21:38:51;;;;;;;5.80;4.40;;;;;;;21.13;42.11;102157.90;113650;1209;59317;-79
2021/09/30 21:41:17;;;;;;;6.80;4.90;;;;;;;21.13;42.04;102157.91;113442;1209;59331;-80
2021/09/30 21:43:42;;;;;;;7.60;4.90;;;;;;;21.13;42.07;102158.63;113474;1209;59366;-79
2021/09/30 21:46:09;;;;;;;7.80;4.70;;;;;;;21.13;42.05;102159.52;113605;1208;59427;-79
2021/09/30 21:48:34;;;;;;;7.30;4.80;;;;;;;21.12;42.09;102163.49;113505;1209;59317;-81
2021/09/30 21:51:00;;;;;;;7.40;4.90;;;;;;;21.12;42.17;102162.05;113668;1208;59283;-81
2021/09/30 21:53:26;;;;;;;8.90;4.90;;;;;;;21.12;42.01;102162.61;113594;1207;71192;-81
2021/09/30 21:55:52;;;;;;;5.60;4.50;;;;;;;21.12;42.20;102163.85;113624;1209;59345;-82
2021/09/30 21:58:18;;;;;;;6.80;4.90;;;;;;;21.12;42.17;102166.19;113624;1209;59664;-80
2021/09/30 22:00:49;;;;;;;7.10;5.10;;;;;;;21.12;42.07;102164.77;113479;1209;59417;-80
2021/09/30 22:03:17;;;;;;;6.10;4.40;;;;;;;21.12;42.22;102164.95;113494;1208;73532;-80
2021/09/30 22:05:47;;;;;;;7.70;4.80;;;;;;;21.12;42.31;102164.98;113588;1208;72793;-81
2021/09/30 22:08:14;;;;;;;6.10;4.30;;;;;;;21.11;42.15;102160.14;113574;1209;60066;-80
2021/09/30 22:10:40;;;;;;;8.20;5.00;;;;;;;21.11;42.07;102165.66;113396;1209;62289;-81
2021/09/30 22:13:06;;;;;;;7.80;4.90;;;;;;;21.11;42.30;102160.88;113436;1209;59408;-81
2021/09/30 22:15:31;;;;;;;7.00;4.90;;;;;;;21.11;42.30;102166.94;113494;1208;59304;-80
2021/09/30 22:17:58;;;;;;;6.10;4.50;;;;;;;21.11;42.27;102166.59;113632;1208;59636;-80
2021/09/30 22:20:24;;;;;;;7.70;4.70;;;;;;;21.11;42.24;102171.23;113507;1208;59337;-80
2021/09/30 22:22:50;;;;;;;6.90;5.00;;;;;;;21.11;42.44;102173.94;113471;1208;59353;-81
2021/09/30 22:25:20;;;;;;;6.60;4.70;;;;;;;21.11;42.22;102172.49;113594;1208;59317;-81
2021/09/30 22:27:46;;;;;;;6.00;4.40;;;;;;;21.11;42.39;102176.25;113566;1208;59554;-81
2021/09/30 22:30:12;;;;;;;6.40;4.60;;;;;;;21.11;42.36;102180.05;113631;1208;59350;-81
2021/09/30 22:32:38;;;;;;;6.30;4.60;;;;;;;21.11;42.37;102182.54;113499;1208;59448;-81
2021/09/30 22:35:11;;;;;;;6.10;4.80;;;;;;;21.10;42.32;102183.26;113421;1209;59456;-82
2021/09/30 22:37:37;;;;;;;7.30;4.70;;;;;;;21.11;42.34;102190.06;113454;1208;59904;-81
2021/09/30 22:40:03;;;;;;;7.10;4.60;;;;;;;21.10;42.41;102184.90;113602;1208;59337;-81
2021/09/30 22:42:29;;;;;;;8.60;4.30;;;;;;;21.11;42.34;102189.35;113516;1208;59430;-80
2021/09/30 22:44:55;;;;;;;6.20;4.20;;;;;;;21.11;42.50;102188.98;113587;1208;59927;-80
2021/09/30 22:47:21;;;;;;;9.50;4.60;;;;;;;21.10;42.57;102189.17;113508;1208;59353;-82
2021/09/30 22:49:46;;;;;;;7.00;4.40;;;;;;;21.10;42.55;102193.30;113478;1208;59452;-82
2021/09/30 22:52:13;;;;;;;7.00;4.60;;;;;;;21.10;42.51;102195.63;113502;1208;59394;-81
2021/09/30 22:54:38;;;;;;;6.40;4.60;;;;;;;21.10;42.45;102197.95;113547;1208;59376;-80
2021/09/30 22:57:04;;;;;;;6.30;4.70;;;;;;;21.09;42.40;102198.85;113665;1209;59387;-80
2021/09/30 22:59:30;;;;;;;6.90;4.70;;;;;;;21.10;42.61;102199.05;113505;1208;59973;-81
2021/09/30 23:01:56;;;;;;;7.40;4.70;;;;;;;21.10;42.60;102200.11;113615;1208;60107;-81
2021/09/30 23:04:22;;;;;;;7.20;4.30;;;;;;;21.10;42.59;102198.86;113499;1209;59334;-81
2021/09/30 23:06:48;;;;;;;7.30;4.80;;;;;;;21.10;42.58;102196.01;113605;1208;59161;-81
2021/09/30 23:09:13;;;;;;;6.90;4.60;;;;;;;21.10;42.68;102190.81;113452;1208;59340;-81
2021/09/30 23:11:39;;;;;;;6.80;5.00;;;;;;;21.09;42.61;102189.21;113511;1209;59336;-81
2021/09/30 23:14:04;;;;;;;7.90;4.70;;;;;;;21.09;42.72;102189.23;113550;1208;59331;-81
2021/09/30 23:16:31;;;;;;;7.70;4.60;;;;;;;21.09;42.67;102189.58;113479;1209;59330;-79
2021/09/30 23:18:56;;;;;;;6.60;4.70;;;;;;;21.09;42.79;102195.66;113599;1193;59331;-79
2021/09/30 23:21:22;;;;;;;9.60;4.50;;;;;;;21.09;42.81;102198.37;113428;1208;59334;-79
2021/09/30 23:23:48;;;;;;;7.50;4.60;;;;;;;21.09;42.79;102195.86;113541;1208;59474;-79
2021/09/30 23:26:14;;;;;;;9.00;4.60;;;;;;;21.09;42.72;102198.73;113567;1208;59321;-80
2021/09/30 23:28:42;;;;;;;6.40;4.80;;;;;;;21.09;42.78;102197.80;113560;1208;59443;-78
2021/09/30 23:31:08;;;;;;;8.40;5.00;;;;;;;21.09;42.74;102195.15;113412;1209;59356;-80
2021/09/30 23:33:33;;;;;;;7.30;4.70;;;;;;;21.09;42.70;102195.88;113559;1208;59438;-80
2021/09/30 23:35:59;;;;;;;6.70;4.60;;;;;;;21.09;42.83;102194.06;113410;1208;59330;-79
2021/09/30 23:38:25;;;;;;;6.70;4.70;;;;;;;21.09;42.89;102190.67;113474;1209;59487;-81
2021/09/30 23:40:50;;;;;;;6.60;4.60;;;;;;;21.08;42.77;102190.16;113388;1209;74872;-81
2021/09/30 23:43:17;;;;;;;6.20;4.90;;;;;;;21.08;42.90;102189.97;113568;1208;60004;-80
2021/09/30 23:45:44;;;;;;;8.90;5.00;;;;;;;21.08;42.84;102186.40;113606;1208;61109;-80
2021/09/30 23:48:10;;;;;;;6.70;4.80;;;;;;;21.08;42.96;102187.49;113558;1208;59938;-80
2021/09/30 23:50:35;;;;;;;6.70;4.60;;;;;;;21.08;42.84;102188.21;113547;1208;60106;-80
2021/09/30 23:53:02;;;;;;;7.10;4.50;;;;;;;21.08;42.95;102185.70;113384;1208;59407;-80
2021/09/30 23:55:27;;;;;;;6.40;4.50;;;;;;;21.08;42.90;102183.89;113557;1209;59333;-80
2021/09/30 23:57:53;;;;;;;5.50;4.00;;;;;;;21.08;42.85;102181.60;113592;1209;59346;-80
